sensor_id;sensor_type;location;lat;lon;timestamp;P1;durP1;ratioP1;P2;durP2;ratioP2
2712;SDS011;1366;47.988;7.856;2022-08-03T04:01:34;3.23;;;3.03;;
2712;SDS011;1366;47.988;7.856;2022-08-03T04:04:00;3.60;;;3.30;;
2712;SDS011;1366;47.988;7.856;2022-08-03T04:06:46;3.10;;;2.77;;
2712;SDS011;1366;47.988;7.856;2022-08-03T04:09:31;2.80;;;2.70;;
2712;SDS011;1366;47.988;7.856;2022-08-03T04:12:18;3.13;;;2.67;;
2712;SDS011;1366;47.988;7.856;2022-08-03T04:14:45;3.50;;;3.20;;
2712;SDS011;1366;47.988;7.856;2022-08-03T04:17:12;3.23;;;3.03;;
2712;SDS011;1366;47.988;7.856;2022-08-03T04:19:41;2.93;;;2.73;;
2712;SDS011;1366;47.988;7.856;2022-08-03T04:22:09;3.33;;;3.13;;
2712;SDS011;1366;47.988;7.856;2022-08-03T04:24:40;4.07;;;3.33;;
2712;SDS011;1366;47.988;7.856;2022-08-03T04:27:08;4.03;;;2.90;;
2712;SDS011;1366;47.988;7.856;2022-08-03T04:29:36;7.60;;;4.00;;
2712;SDS011;1366;47.988;7.856;2022-08-03T04:32:04;4.80;;;3.07;;
2712;SDS011;1366;47.988;7.856;2022-08-03T04:34:31;4.73;;;3.00;;
2712;SDS011;1366;47.988;7.856;2022-08-03T04:36:58;3.63;;;3.33;;
2712;SDS011;1366;47.988;7.856;2022-08-03T04:39:25;3.33;;;3.13;;
2712;SDS011;1366;47.988;7.856;2022-08-03T04:41:52;3.20;;;2.90;;
2712;SDS011;1366;47.988;7.856;2022-08-03T04:44:19;3.10;;;2.90;;
2712;SDS011;1366;47.988;7.856;2022-08-03T04:46:46;4.23;;;3.33;;
2712;SDS011;1366;47.988;7.856;2022-08-03T04:49:12;3.43;;;3.20;;
2712;SDS011;1366;47.988;7.856;2022-08-03T04:51:38;3.47;;;3.17;;
2712;SDS011;1366;47.988;7.856;2022-08-03T04:54:06;3.10;;;2.90;;
2712;SDS011;1366;47.988;7.856;2022-08-03T04:56:38;4.20;;;3.13;;
2712;SDS011;1366;47.988;7.856;2022-08-03T04:59:04;3.40;;;3.20;;
2712;SDS011;1366;47.988;7.856;2022-08-03T05:01:30;3.73;;;3.30;;
2712;SDS011;1366;47.988;7.856;2022-08-03T05:03:56;3.10;;;2.90;;
2712;SDS011;1366;47.988;7.856;2022-08-03T05:06:22;3.50;;;3.30;;
2712;SDS011;1366;47.988;7.856;2022-08-03T05:08:48;3.63;;;3.43;;
2712;SDS011;1366;47.988;7.856;2022-08-03T05:11:15;3.67;;;3.37;;
2712;SDS011;1366;47.988;7.856;2022-08-03T05:13:42;3.00;;;2.80;;
2712;SDS011;1366;47.988;7.856;2022-08-03T05:16:08;3.20;;;3.00;;
2712;SDS011;1366;47.988;7.856;2022-08-03T05:18:34;3.73;;;3.43;;
2712;SDS011;1366;47.988;7.856;2022-08-03T05:21:00;3.23;;;3.03;;
2712;SDS011;1366;47.988;7.856;2022-08-03T05:23:26;3.10;;;2.90;;
2712;SDS011;1366;47.988;7.856;2022-08-03T05:25:52;3.50;;;3.20;;
2712;SDS011;1366;47.988;7.856;2022-08-03T05:28:18;3.53;;;3.33;;
2712;SDS011;1366;47.988;7.856;2022-08-03T05:30:44;3.03;;;2.80;;
2712;SDS011;1366;47.988;7.856;2022-08-03T05:33:10;3.90;;;3.50;;
2712;SDS011;1366;47.988;7.856;2022-08-03T05:35:37;3.33;;;3.03;;
2712;SDS011;1366;47.988;7.856;2022-08-03T05:38:03;4.07;;;3.60;;
2712;SDS011;1366;47.988;7.856;2022-08-03T05:40:30;5.10;;;3.37;;
2712;SDS011;1366;47.988;7.856;2022-08-03T05:42:56;4.00;;;3.53;;
2712;SDS011;1366;47.988;7.856;2022-08-03T05:45:22;4.00;;;3.70;;
2712;SDS011;1366;47.988;7.856;2022-08-03T05:47:48;4.50;;;3.37;;
2712;SDS011;1366;47.988;7.856;2022-08-03T05:50:15;3.67;;;3.10;;
2712;SDS011;1366;47.988;7.856;2022-08-03T05:52:41;3.10;;;2.90;;
2712;SDS011;1366;47.988;7.856;2022-08-03T05:55:08;3.73;;;3.43;;
2712;SDS011;1366;47.988;7.856;2022-08-03T05:57:34;4.53;;;3.63;;
2712;SDS011;1366;47.988;7.856;2022-08-03T06:00:01;4.87;;;3.23;;
2712;SDS011;1366;47.988;7.856;2022-08-03T06:02:27;3.47;;;3.10;;
2712;SDS011;1366;47.988;7.856;2022-08-03T06:04:54;3.80;;;3.60;;
2712;SDS011;1366;47.988;7.856;2022-08-03T06:07:20;3.47;;;3.27;;
2712;SDS011;1366;47.988;7.856;2022-08-03T06:09:46;3.40;;;3.20;;
2712;SDS011;1366;47.988;7.856;2022-08-03T06:12:12;3.27;;;3.07;;
2712;SDS011;1366;47.988;7.856;2022-08-03T06:14:38;3.23;;;3.03;;
2712;SDS011;1366;47.988;7.856;2022-08-03T06:17:04;3.30;;;3.10;;
2712;SDS011;1366;47.988;7.856;2022-08-03T06:19:30;3.03;;;2.83;;
2712;SDS011;1366;47.988;7.856;2022-08-03T06:21:56;3.30;;;3.00;;
2712;SDS011;1366;47.988;7.856;2022-08-03T06:24:22;3.43;;;3.20;;
2712;SDS011;1366;47.988;7.856;2022-08-03T06:26:48;3.20;;;3.00;;
2712;SDS011;1366;47.988;7.856;2022-08-03T06:29:14;3.47;;;3.27;;
2712;SDS011;1366;47.988;7.856;2022-08-03T06:31:40;3.27;;;3.00;;
2712;SDS011;1366;47.988;7.856;2022-08-03T06:34:06;3.50;;;3.20;;
2712;SDS011;1366;47.988;7.856;2022-08-03T06:36:33;3.47;;;3.27;;
2712;SDS011;1366;47.988;7.856;2022-08-03T06:38:59;3.90;;;3.23;;
2712;SDS011;1366;47.988;7.856;2022-08-03T06:41:25;3.37;;;3.17;;
2712;SDS011;1366;47.988;7.856;2022-08-03T06:43:52;3.43;;;3.13;;
2712;SDS011;1366;47.988;7.856;2022-08-03T06:46:18;3.63;;;3.33;;
2712;SDS011;1366;47.988;7.856;2022-08-03T06:48:44;3.70;;;3.40;;
2712;SDS011;1366;47.988;7.856;2022-08-03T06:51:10;3.40;;;3.20;;
2712;SDS011;1366;47.988;7.856;2022-08-03T06:53:36;3.63;;;3.33;;
2712;SDS011;1366;47.988;7.856;2022-08-03T06:56:03;3.47;;;3.17;;
2712;SDS011;1366;47.988;7.856;2022-08-03T06:58:29;3.53;;;3.33;;
2712;SDS011;1366;47.988;7.856;2022-08-03T07:00:55;3.30;;;3.07;;
2712;SDS011;1366;47.988;7.856;2022-08-03T07:03:21;3.30;;;3.10;;
2712;SDS011;1366;47.988;7.856;2022-08-03T07:05:48;3.27;;;3.07;;
2712;SDS011;1366;47.988;7.856;2022-08-03T07:08:15;3.40;;;3.10;;
2712;SDS011;1366;47.988;7.856;2022-08-03T07:10:41;3.93;;;3.53;;
2712;SDS011;1366;47.988;7.856;2022-08-03T07:13:07;3.30;;;3.10;;
2712;SDS011;1366;47.988;7.856;2022-08-03T07:15:33;3.03;;;2.83;;
2712;SDS011;1366;47.988;7.856;2022-08-03T07:17:59;3.60;;;3.40;;
2712;SDS011;1366;47.988;7.856;2022-08-03T07:20:26;4.20;;;3.90;;
2712;SDS011;1366;47.988;7.856;2022-08-03T07:22:52;4.60;;;4.20;;
2712;SDS011;1366;47.988;7.856;2022-08-03T07:25:18;3.67;;;3.47;;
2712;SDS011;1366;47.988;7.856;2022-08-03T07:27:44;4.13;;;3.80;;
2712;SDS011;1366;47.988;7.856;2022-08-03T07:30:11;3.50;;;3.30;;
2712;SDS011;1366;47.988;7.856;2022-08-03T07:32:37;3.70;;;3.40;;
2712;SDS011;1366;47.988;7.856;2022-08-03T07:35:04;3.53;;;3.27;;
2712;SDS011;1366;47.988;7.856;2022-08-03T07:37:30;3.53;;;3.33;;
2712;SDS011;1366;47.988;7.856;2022-08-03T07:39:57;4.63;;;3.67;;
2712;SDS011;1366;47.988;7.856;2022-08-03T07:42:23;4.20;;;3.80;;
2712;SDS011;1366;47.988;7.856;2022-08-03T07:44:49;4.13;;;3.73;;
2712;SDS011;1366;47.988;7.856;2022-08-03T07:47:33;3.60;;;3.30;;
2712;SDS011;1366;47.988;7.856;2022-08-03T07:49:59;3.57;;;3.27;;
2712;SDS011;1366;47.988;7.856;2022-08-03T07:52:25;5.40;;;4.00;;
2712;SDS011;1366;47.988;7.856;2022-08-03T07:55:10;4.00;;;3.70;;
2712;SDS011;1366;47.988;7.856;2022-08-03T07:57:36;4.43;;;3.80;;
2712;SDS011;1366;47.988;7.856;2022-08-03T08:00:06;3.73;;;3.53;;
2712;SDS011;1366;47.988;7.856;2022-08-03T08:02:35;3.77;;;3.47;;
2712;SDS011;1366;47.988;7.856;2022-08-03T08:05:01;4.03;;;3.73;;
2712;SDS011;1366;47.988;7.856;2022-08-03T08:07:27;3.93;;;3.70;;
2712;SDS011;1366;47.988;7.856;2022-08-03T08:09:53;3.70;;;3.40;;
2712;SDS011;1366;47.988;7.856;2022-08-03T08:12:19;4.33;;;3.80;;
2712;SDS011;1366;47.988;7.856;2022-08-03T08:14:45;4.27;;;3.87;;
2712;SDS011;1366;47.988;7.856;2022-08-03T08:17:11;3.88;;;3.58;;
2712;SDS011;1366;47.988;7.856;2022-08-03T08:19:37;4.00;;;3.70;;
2712;SDS011;1366;47.988;7.856;2022-08-03T08:22:04;3.93;;;3.60;;
2712;SDS011;1366;47.988;7.856;2022-08-03T08:24:30;4.10;;;3.80;;
2712;SDS011;1366;47.988;7.856;2022-08-03T08:26:58;5.07;;;3.60;;
2712;SDS011;1366;47.988;7.856;2022-08-03T08:29:25;4.00;;;3.70;;
2712;SDS011;1366;47.988;7.856;2022-08-03T08:31:51;3.90;;;3.57;;
2712;SDS011;1366;47.988;7.856;2022-08-03T08:34:17;3.80;;;3.57;;
2712;SDS011;1366;47.988;7.856;2022-08-03T08:36:43;3.70;;;3.40;;
2712;SDS011;1366;47.988;7.856;2022-08-03T08:39:09;3.80;;;3.50;;
2712;SDS011;1366;47.988;7.856;2022-08-03T08:41:36;3.73;;;3.53;;
2712;SDS011;1366;47.988;7.856;2022-08-03T08:44:02;5.27;;;3.67;;
2712;SDS011;1366;47.988;7.856;2022-08-03T08:46:30;3.80;;;3.50;;
2712;SDS011;1366;47.988;7.856;2022-08-03T08:48:56;4.23;;;3.73;;
2712;SDS011;1366;47.988;7.856;2022-08-03T08:51:26;3.73;;;3.53;;
2712;SDS011;1366;47.988;7.856;2022-08-03T08:53:52;4.30;;;3.90;;
2712;SDS011;1366;47.988;7.856;2022-08-03T08:56:19;3.77;;;3.53;;
2712;SDS011;1366;47.988;7.856;2022-08-03T08:58:53;4.33;;;3.53;;
2712;SDS011;1366;47.988;7.856;2022-08-03T09:01:22;4.00;;;3.60;;
2712;SDS011;1366;47.988;7.856;2022-08-03T09:03:48;4.00;;;3.70;;
2712;SDS011;1366;47.988;7.856;2022-08-03T09:06:15;4.17;;;3.87;;
2712;SDS011;1366;47.988;7.856;2022-08-03T09:08:41;4.70;;;3.73;;
2712;SDS011;1366;47.988;7.856;2022-08-03T09:11:08;7.27;;;4.37;;
2712;SDS011;1366;47.988;7.856;2022-08-03T09:13:34;3.90;;;3.60;;
2712;SDS011;1366;47.988;7.856;2022-08-03T09:16:12;4.00;;;3.70;;
2712;SDS011;1366;47.988;7.856;2022-08-03T09:18:39;5.03;;;4.00;;
2712;SDS011;1366;47.988;7.856;2022-08-03T09:23:48;4.10;;;3.80;;
2712;SDS011;1366;47.988;7.856;2022-08-03T09:26:24;4.13;;;3.83;;
2712;SDS011;1366;47.988;7.856;2022-08-03T09:29:00;4.10;;;3.80;;
2712;SDS011;1366;47.988;7.856;2022-08-03T09:33:56;4.20;;;3.90;;
2712;SDS011;1366;47.988;7.856;2022-08-03T09:36:41;4.20;;;3.80;;
2712;SDS011;1366;47.988;7.856;2022-08-03T09:39:09;4.30;;;4.00;;
2712;SDS011;1366;47.988;7.856;2022-08-03T09:41:36;4.80;;;4.50;;
2712;SDS011;1366;47.988;7.856;2022-08-03T09:44:02;4.07;;;3.77;;
2712;SDS011;1366;47.988;7.856;2022-08-03T09:46:28;3.90;;;3.60;;
2712;SDS011;1366;47.988;7.856;2022-08-03T09:49:11;3.80;;;3.50;;
2712;SDS011;1366;47.988;7.856;2022-08-03T09:51:38;4.20;;;3.80;;
2712;SDS011;1366;47.988;7.856;2022-08-03T09:54:04;3.53;;;3.33;;
2712;SDS011;1366;47.988;7.856;2022-08-03T09:56:41;4.30;;;4.10;;
2712;SDS011;1366;47.988;7.856;2022-08-03T09:59:07;4.10;;;3.90;;
2712;SDS011;1366;47.988;7.856;2022-08-03T10:01:33;4.07;;;3.77;;
2712;SDS011;1366;47.988;7.856;2022-08-03T10:04:00;4.03;;;3.73;;
2712;SDS011;1366;47.988;7.856;2022-08-03T10:06:26;3.77;;;3.57;;
2712;SDS011;1366;47.988;7.856;2022-08-03T10:09:09;4.20;;;3.80;;
2712;SDS011;1366;47.988;7.856;2022-08-03T10:11:35;4.33;;;4.03;;
2712;SDS011;1366;47.988;7.856;2022-08-03T10:14:03;3.90;;;3.60;;
2712;SDS011;1366;47.988;7.856;2022-08-03T10:16:32;4.00;;;3.70;;
2712;SDS011;1366;47.988;7.856;2022-08-03T10:18:59;3.67;;;3.47;;
2712;SDS011;1366;47.988;7.856;2022-08-03T10:21:25;3.87;;;3.67;;
2712;SDS011;1366;47.988;7.856;2022-08-03T10:23:53;4.30;;;4.00;;
2712;SDS011;1366;47.988;7.856;2022-08-03T10:26:21;4.30;;;3.90;;
2712;SDS011;1366;47.988;7.856;2022-08-03T10:28:51;3.80;;;3.50;;
2712;SDS011;1366;47.988;7.856;2022-08-03T10:31:19;5.27;;;3.63;;
2712;SDS011;1366;47.988;7.856;2022-08-03T10:33:46;4.23;;;3.93;;
2712;SDS011;1366;47.988;7.856;2022-08-03T10:36:14;3.90;;;3.70;;
2712;SDS011;1366;47.988;7.856;2022-08-03T10:38:44;4.10;;;3.90;;
2712;SDS011;1366;47.988;7.856;2022-08-03T10:41:14;4.50;;;4.10;;
2712;SDS011;1366;47.988;7.856;2022-08-03T10:43:45;4.73;;;3.77;;
2712;SDS011;1366;47.988;7.856;2022-08-03T10:46:16;4.47;;;4.17;;
2712;SDS011;1366;47.988;7.856;2022-08-03T10:48:44;4.43;;;4.17;;
2712;SDS011;1366;47.988;7.856;2022-08-03T10:51:11;4.40;;;4.10;;
2712;SDS011;1366;47.988;7.856;2022-08-03T10:53:39;4.37;;;4.00;;
2712;SDS011;1366;47.988;7.856;2022-08-03T10:56:06;3.90;;;3.70;;
2712;SDS011;1366;47.988;7.856;2022-08-03T10:59:11;5.33;;;4.03;;
2712;SDS011;1366;47.988;7.856;2022-08-03T11:01:55;4.27;;;3.97;;
2712;SDS011;1366;47.988;7.856;2022-08-03T11:04:22;4.10;;;3.90;;
2712;SDS011;1366;47.988;7.856;2022-08-03T11:09:40;4.43;;;4.13;;
2712;SDS011;1366;47.988;7.856;2022-08-03T11:12:28;4.60;;;4.30;;
2712;SDS011;1366;47.988;7.856;2022-08-03T11:14:55;4.83;;;4.43;;
2712;SDS011;1366;47.988;7.856;2022-08-03T11:17:22;4.27;;;3.97;;
2712;SDS011;1366;47.988;7.856;2022-08-03T11:19:49;4.10;;;3.80;;
2712;SDS011;1366;47.988;7.856;2022-08-03T11:22:15;4.20;;;3.90;;
2712;SDS011;1366;47.988;7.856;2022-08-03T11:48:33;4.17;;;3.87;;
2712;SDS011;1366;47.988;7.856;2022-08-03T11:51:00;3.87;;;3.60;;
2712;SDS011;1366;47.988;7.856;2022-08-03T11:53:26;3.77;;;3.53;;
2712;SDS011;1366;47.988;7.856;2022-08-03T11:55:53;3.53;;;3.23;;
2712;SDS011;1366;47.988;7.856;2022-08-03T11:58:22;4.20;;;3.90;;
2712;SDS011;1366;47.988;7.856;2022-08-03T12:00:49;3.83;;;3.63;;
2712;SDS011;1366;47.988;7.856;2022-08-03T12:03:16;3.87;;;3.60;;
2712;SDS011;1366;47.988;7.856;2022-08-03T12:08:09;3.40;;;3.20;;
2712;SDS011;1366;47.988;7.856;2022-08-03T12:10:36;3.30;;;3.10;;
2712;SDS011;1366;47.988;7.856;2022-08-03T12:13:04;4.50;;;4.20;;
2712;SDS011;1366;47.988;7.856;2022-08-03T12:15:32;3.87;;;3.67;;
2712;SDS011;1366;47.988;7.856;2022-08-03T12:17:58;4.27;;;3.97;;
2712;SDS011;1366;47.988;7.856;2022-08-03T12:20:25;4.10;;;3.80;;
2712;SDS011;1366;47.988;7.856;2022-08-03T12:22:52;3.47;;;3.20;;
2712;SDS011;1366;47.988;7.856;2022-08-03T12:25:22;4.40;;;4.10;;
2712;SDS011;1366;47.988;7.856;2022-08-03T12:27:49;3.80;;;3.50;;
2712;SDS011;1366;47.988;7.856;2022-08-03T12:30:16;3.60;;;3.30;;
2712;SDS011;1366;47.988;7.856;2022-08-03T12:32:42;4.37;;;4.07;;
2712;SDS011;1366;47.988;7.856;2022-08-03T12:35:09;4.30;;;4.00;;
2712;SDS011;1366;47.988;7.856;2022-08-03T12:37:35;4.00;;;3.70;;
2712;SDS011;1366;47.988;7.856;2022-08-03T12:40:02;4.40;;;4.10;;
2712;SDS011;1366;47.988;7.856;2022-08-03T12:42:34;3.97;;;3.67;;
2712;SDS011;1366;47.988;7.856;2022-08-03T12:45:20;3.80;;;3.50;;
2712;SDS011;1366;47.988;7.856;2022-08-03T12:47:56;4.30;;;4.00;;
2712;SDS011;1366;47.988;7.856;2022-08-03T12:50:32;5.20;;;4.07;;
2712;SDS011;1366;47.988;7.856;2022-08-03T12:53:02;3.93;;;3.73;;
2712;SDS011;1366;47.988;7.856;2022-08-03T12:55:29;4.53;;;4.23;;
2712;SDS011;1366;47.988;7.856;2022-08-03T12:58:07;4.40;;;4.13;;
2712;SDS011;1366;47.988;7.856;2022-08-03T13:00:35;3.70;;;3.50;;
2712;SDS011;1366;47.988;7.856;2022-08-03T13:03:06;4.10;;;3.80;;
2712;SDS011;1366;47.988;7.856;2022-08-03T13:05:42;4.10;;;3.87;;
2712;SDS011;1366;47.988;7.856;2022-08-03T13:08:17;4.37;;;4.07;;
2712;SDS011;1366;47.988;7.856;2022-08-03T13:10:44;3.80;;;3.60;;
2712;SDS011;1366;47.988;7.856;2022-08-03T13:13:10;4.93;;;4.20;;
2712;SDS011;1366;47.988;7.856;2022-08-03T13:15:36;4.37;;;4.07;;
2712;SDS011;1366;47.988;7.856;2022-08-03T13:18:02;3.60;;;3.40;;
2712;SDS011;1366;47.988;7.856;2022-08-03T13:20:28;4.10;;;3.80;;
2712;SDS011;1366;47.988;7.856;2022-08-03T13:22:54;6.50;;;3.93;;
2712;SDS011;1366;47.988;7.856;2022-08-03T13:25:20;3.90;;;3.70;;
2712;SDS011;1366;47.988;7.856;2022-08-03T13:27:47;3.70;;;3.50;;
2712;SDS011;1366;47.988;7.856;2022-08-03T13:30:14;3.87;;;3.67;;
2712;SDS011;1366;47.988;7.856;2022-08-03T13:32:40;3.80;;;3.50;;
2712;SDS011;1366;47.988;7.856;2022-08-03T13:35:07;3.83;;;3.63;;
2712;SDS011;1366;47.988;7.856;2022-08-03T13:37:33;3.93;;;3.63;;
2712;SDS011;1366;47.988;7.856;2022-08-03T13:40:00;3.93;;;3.73;;
2712;SDS011;1366;47.988;7.856;2022-08-03T13:42:27;3.90;;;3.60;;
2712;SDS011;1366;47.988;7.856;2022-08-03T13:44:53;3.60;;;3.40;;
2712;SDS011;1366;47.988;7.856;2022-08-03T13:47:19;3.73;;;3.40;;
2712;SDS011;1366;47.988;7.856;2022-08-03T13:49:45;3.87;;;3.67;;
2712;SDS011;1366;47.988;7.856;2022-08-03T13:52:12;3.43;;;3.23;;
2712;SDS011;1366;47.988;7.856;2022-08-03T13:54:38;4.60;;;3.50;;
2712;SDS011;1366;47.988;7.856;2022-08-03T13:57:04;3.90;;;3.10;;
2712;SDS011;1366;47.988;7.856;2022-08-03T13:59:30;3.80;;;3.40;;
2712;SDS011;1366;47.988;7.856;2022-08-03T14:01:56;3.10;;;2.80;;
2712;SDS011;1366;47.988;7.856;2022-08-03T14:04:22;4.90;;;2.90;;
2712;SDS011;1366;47.988;7.856;2022-08-03T14:06:48;3.10;;;2.90;;
2712;SDS011;1366;47.988;7.856;2022-08-03T14:09:14;2.60;;;2.50;;
2712;SDS011;1366;47.988;7.856;2022-08-03T14:11:41;3.17;;;2.80;;
2712;SDS011;1366;47.988;7.856;2022-08-03T14:14:08;2.23;;;2.13;;
2712;SDS011;1366;47.988;7.856;2022-08-03T14:16:34;2.40;;;2.20;;
2712;SDS011;1366;47.988;7.856;2022-08-03T14:19:00;2.07;;;1.97;;
2712;SDS011;1366;47.988;7.856;2022-08-03T14:21:26;2.10;;;2.00;;
2712;SDS011;1366;47.988;7.856;2022-08-03T14:23:54;2.20;;;2.00;;
2712;SDS011;1366;47.988;7.856;2022-08-03T14:26:20;2.03;;;1.93;;
2712;SDS011;1366;47.988;7.856;2022-08-03T14:28:47;2.70;;;2.50;;
2712;SDS011;1366;47.988;7.856;2022-08-03T14:31:13;2.10;;;2.00;;
2712;SDS011;1366;47.988;7.856;2022-08-03T14:33:39;2.53;;;2.43;;
2712;SDS011;1366;47.988;7.856;2022-08-03T14:36:05;2.63;;;2.47;;
2712;SDS011;1366;47.988;7.856;2022-08-03T14:38:31;2.60;;;2.17;;
2712;SDS011;1366;47.988;7.856;2022-08-03T14:40:57;2.13;;;2.03;;
2712;SDS011;1366;47.988;7.856;2022-08-03T14:43:23;2.43;;;2.27;;
2712;SDS011;1366;47.988;7.856;2022-08-03T14:45:49;2.70;;;2.10;;
2712;SDS011;1366;47.988;7.856;2022-08-03T14:48:19;2.10;;;2.00;;
2712;SDS011;1366;47.988;7.856;2022-08-03T14:50:45;2.10;;;2.00;;
2712;SDS011;1366;47.988;7.856;2022-08-03T14:53:11;2.50;;;2.30;;
2712;SDS011;1366;47.988;7.856;2022-08-03T14:55:38;2.27;;;2.17;;
2712;SDS011;1366;47.988;7.856;2022-08-03T14:58:04;2.53;;;2.43;;
2712;SDS011;1366;47.988;7.856;2022-08-03T15:00:31;2.70;;;2.40;;
2712;SDS011;1366;47.988;7.856;2022-08-03T15:02:57;3.00;;;2.80;;
2712;SDS011;1366;47.988;7.856;2022-08-03T15:05:24;4.20;;;2.57;;
2712;SDS011;1366;47.988;7.856;2022-08-03T15:07:50;1.90;;;1.80;;
2712;SDS011;1366;47.988;7.856;2022-08-03T15:10:16;2.03;;;1.93;;
2712;SDS011;1366;47.988;7.856;2022-08-03T15:12:42;2.60;;;2.50;;
2712;SDS011;1366;47.988;7.856;2022-08-03T15:15:08;2.53;;;2.33;;
2712;SDS011;1366;47.988;7.856;2022-08-03T15:17:35;2.60;;;2.40;;
2712;SDS011;1366;47.988;7.856;2022-08-03T15:20:01;2.00;;;1.90;;
2712;SDS011;1366;47.988;7.856;2022-08-03T15:22:27;2.93;;;2.73;;
2712;SDS011;1366;47.988;7.856;2022-08-03T15:24:53;2.00;;;1.90;;
2712;SDS011;1366;47.988;7.856;2022-08-03T15:27:20;1.90;;;1.80;;
2712;SDS011;1366;47.988;7.856;2022-08-03T15:29:46;2.60;;;2.10;;
2712;SDS011;1366;47.988;7.856;2022-08-03T15:32:12;2.30;;;2.10;;
2712;SDS011;1366;47.988;7.856;2022-08-03T15:34:38;2.17;;;2.07;;
2712;SDS011;1366;47.988;7.856;2022-08-03T15:37:05;2.10;;;2.00;;
2712;SDS011;1366;47.988;7.856;2022-08-03T15:39:31;2.67;;;2.47;;
2712;SDS011;1366;47.988;7.856;2022-08-03T15:41:57;2.40;;;2.30;;
2712;SDS011;1366;47.988;7.856;2022-08-03T15:44:23;2.03;;;1.83;;
2712;SDS011;1366;47.988;7.856;2022-08-03T15:46:51;2.20;;;2.08;;
2712;SDS011;1366;47.988;7.856;2022-08-03T15:49:17;3.00;;;2.10;;
2712;SDS011;1366;47.988;7.856;2022-08-03T15:51:44;2.05;;;1.95;;
2712;SDS011;1366;47.988;7.856;2022-08-03T15:54:10;2.22;;;2.03;;
2712;SDS011;1366;47.988;7.856;2022-08-03T15:56:37;2.20;;;2.10;;
2712;SDS011;1366;47.988;7.856;2022-08-03T15:59:05;2.67;;;2.47;;
2712;SDS011;1366;47.988;7.856;2022-08-03T16:01:31;2.25;;;2.15;;
2712;SDS011;1366;47.988;7.856;2022-08-03T16:03:58;2.40;;;2.30;;
2712;SDS011;1366;47.988;7.856;2022-08-03T16:06:24;2.60;;;2.40;;
2712;SDS011;1366;47.988;7.856;2022-08-03T16:08:50;2.83;;;2.63;;
2712;SDS011;1366;47.988;7.856;2022-08-03T16:11:16;2.55;;;2.45;;
2712;SDS011;1366;47.988;7.856;2022-08-03T16:13:42;2.80;;;2.60;;
2712;SDS011;1366;47.988;7.856;2022-08-03T16:16:08;2.45;;;2.35;;
2712;SDS011;1366;47.988;7.856;2022-08-03T16:18:34;2.45;;;2.35;;
2712;SDS011;1366;47.988;7.856;2022-08-03T16:21:03;2.83;;;2.72;;
2712;SDS011;1366;47.988;7.856;2022-08-03T16:23:29;2.40;;;2.30;;
2712;SDS011;1366;47.988;7.856;2022-08-03T16:25:55;2.50;;;2.40;;
2712;SDS011;1366;47.988;7.856;2022-08-03T16:28:21;2.83;;;2.67;;
2712;SDS011;1366;47.988;7.856;2022-08-03T16:30:47;2.67;;;2.58;;
2712;SDS011;1366;47.988;7.856;2022-08-03T16:33:14;2.50;;;2.40;;
2712;SDS011;1366;47.988;7.856;2022-08-03T16:35:40;2.88;;;2.78;;
2712;SDS011;1366;47.988;7.856;2022-08-03T16:38:06;5.60;;;2.88;;
2712;SDS011;1366;47.988;7.856;2022-08-03T16:40:33;3.20;;;3.00;;
2712;SDS011;1366;47.988;7.856;2022-08-03T16:42:59;2.78;;;2.67;;
2712;SDS011;1366;47.988;7.856;2022-08-03T16:45:26;3.40;;;3.15;;
2712;SDS011;1366;47.988;7.856;2022-08-03T16:47:52;3.38;;;3.20;;
2712;SDS011;1366;47.988;7.856;2022-08-03T16:50:18;3.15;;;2.95;;
2712;SDS011;1366;47.988;7.856;2022-08-03T16:52:44;2.70;;;2.50;;
2712;SDS011;1366;47.988;7.856;2022-08-03T16:55:10;3.20;;;3.00;;
2712;SDS011;1366;47.988;7.856;2022-08-03T16:57:38;3.00;;;2.90;;
2712;SDS011;1366;47.988;7.856;2022-08-03T17:00:05;2.85;;;2.65;;
2712;SDS011;1366;47.988;7.856;2022-08-03T17:02:31;2.97;;;2.78;;
2712;SDS011;1366;47.988;7.856;2022-08-03T17:04:58;3.03;;;2.85;;
2712;SDS011;1366;47.988;7.856;2022-08-03T17:07:24;3.20;;;3.00;;
2712;SDS011;1366;47.988;7.856;2022-08-03T17:09:50;3.30;;;3.15;;
2712;SDS011;1366;47.988;7.856;2022-08-03T17:12:16;3.30;;;3.20;;
2712;SDS011;1366;47.988;7.856;2022-08-03T17:14:43;3.15;;;2.90;;
2712;SDS011;1366;47.988;7.856;2022-08-03T17:17:16;3.45;;;3.25;;
2712;SDS011;1366;47.988;7.856;2022-08-03T17:19:45;3.60;;;3.40;;
2712;SDS011;1366;47.988;7.856;2022-08-03T17:22:13;3.95;;;3.25;;
2712;SDS011;1366;47.988;7.856;2022-08-03T17:24:44;3.28;;;3.17;;
2712;SDS011;1366;47.988;7.856;2022-08-03T17:27:18;3.30;;;3.20;;
2712;SDS011;1366;47.988;7.856;2022-08-03T17:29:46;3.80;;;3.50;;
2712;SDS011;1366;47.988;7.856;2022-08-03T17:32:13;3.30;;;3.20;;
2712;SDS011;1366;47.988;7.856;2022-08-03T17:34:43;3.70;;;3.37;;
2712;SDS011;1366;47.988;7.856;2022-08-03T17:37:11;3.60;;;3.40;;
2712;SDS011;1366;47.988;7.856;2022-08-03T17:39:38;3.30;;;3.10;;
2712;SDS011;1366;47.988;7.856;2022-08-03T17:42:06;4.00;;;3.40;;
2712;SDS011;1366;47.988;7.856;2022-08-03T17:44:32;3.37;;;3.17;;
2712;SDS011;1366;47.988;7.856;2022-08-03T17:46:58;4.23;;;3.90;;
2712;SDS011;1366;47.988;7.856;2022-08-03T17:49:24;3.90;;;3.70;;
2712;SDS011;1366;47.988;7.856;2022-08-03T17:51:55;3.73;;;3.53;;
2712;SDS011;1366;47.988;7.856;2022-08-03T17:54:23;3.80;;;3.60;;
2712;SDS011;1366;47.988;7.856;2022-08-03T17:59:44;4.57;;;3.73;;
2712;SDS011;1366;47.988;7.856;2022-08-03T18:05:17;4.33;;;4.07;;
2712;SDS011;1366;47.988;7.856;2022-08-03T18:07:49;4.13;;;3.83;;
2712;SDS011;1366;47.988;7.856;2022-08-03T18:10:23;4.80;;;3.70;;
2712;SDS011;1366;47.988;7.856;2022-08-03T18:12:56;3.80;;;3.60;;
2712;SDS011;1366;47.988;7.856;2022-08-03T18:15:24;4.07;;;3.57;;
2712;SDS011;1366;47.988;7.856;2022-08-03T18:17:52;4.00;;;3.70;;
2712;SDS011;1366;47.988;7.856;2022-08-03T18:20:19;4.00;;;3.80;;
2712;SDS011;1366;47.988;7.856;2022-08-03T18:22:45;4.77;;;3.63;;
2712;SDS011;1366;47.988;7.856;2022-08-03T18:25:12;3.87;;;3.63;;
2712;SDS011;1366;47.988;7.856;2022-08-03T18:27:39;3.70;;;3.50;;
2712;SDS011;1366;47.988;7.856;2022-08-03T18:30:06;3.93;;;3.70;;
2712;SDS011;1366;47.988;7.856;2022-08-03T18:32:32;3.77;;;3.57;;
2712;SDS011;1366;47.988;7.856;2022-08-03T18:34:59;4.93;;;3.90;;
2712;SDS011;1366;47.988;7.856;2022-08-03T18:37:28;4.17;;;3.83;;
2712;SDS011;1366;47.988;7.856;2022-08-03T18:39:54;4.30;;;3.87;;
2712;SDS011;1366;47.988;7.856;2022-08-03T18:42:21;4.33;;;3.93;;
2712;SDS011;1366;47.988;7.856;2022-08-03T18:44:47;3.90;;;3.70;;
2712;SDS011;1366;47.988;7.856;2022-08-03T18:50:13;4.33;;;4.00;;
2712;SDS011;1366;47.988;7.856;2022-08-03T18:52:45;3.87;;;3.57;;
2712;SDS011;1366;47.988;7.856;2022-08-03T18:55:18;3.80;;;3.50;;
2712;SDS011;1366;47.988;7.856;2022-08-03T18:57:49;4.33;;;4.03;;
2712;SDS011;1366;47.988;7.856;2022-08-03T19:00:17;5.73;;;3.90;;
2712;SDS011;1366;47.988;7.856;2022-08-03T19:02:58;3.77;;;3.50;;
2712;SDS011;1366;47.988;7.856;2022-08-03T19:05:28;5.80;;;4.20;;
2712;SDS011;1366;47.988;7.856;2022-08-03T19:07:57;4.47;;;4.13;;
2712;SDS011;1366;47.988;7.856;2022-08-03T19:10:29;4.00;;;3.70;;
2712;SDS011;1366;47.988;7.856;2022-08-03T19:13:02;4.33;;;3.90;;
2712;SDS011;1366;47.988;7.856;2022-08-03T19:15:28;4.23;;;3.93;;
2712;SDS011;1366;47.988;7.856;2022-08-03T19:17:56;4.40;;;4.10;;
2712;SDS011;1366;47.988;7.856;2022-08-03T19:20:24;4.47;;;4.17;;
2712;SDS011;1366;47.988;7.856;2022-08-03T19:22:51;4.53;;;4.23;;
2712;SDS011;1366;47.988;7.856;2022-08-03T19:25:17;4.20;;;3.83;;
2712;SDS011;1366;47.988;7.856;2022-08-03T19:27:44;4.37;;;3.87;;
2712;SDS011;1366;47.988;7.856;2022-08-03T19:30:11;3.93;;;3.70;;
2712;SDS011;1366;47.988;7.856;2022-08-03T19:33:01;4.23;;;4.00;;
2712;SDS011;1366;47.988;7.856;2022-08-03T19:35:29;4.70;;;4.30;;
2712;SDS011;1366;47.988;7.856;2022-08-03T19:37:55;6.37;;;4.20;;
2712;SDS011;1366;47.988;7.856;2022-08-03T19:40:22;5.50;;;3.80;;
2712;SDS011;1366;47.988;7.856;2022-08-03T19:42:49;4.10;;;3.80;;
2712;SDS011;1366;47.988;7.856;2022-08-03T19:45:20;4.30;;;3.90;;
2712;SDS011;1366;47.988;7.856;2022-08-03T19:47:50;5.67;;;4.00;;
2712;SDS011;1366;47.988;7.856;2022-08-03T19:50:17;4.40;;;3.70;;
2712;SDS011;1366;47.988;7.856;2022-08-03T19:52:44;3.87;;;3.57;;
2712;SDS011;1366;47.988;7.856;2022-08-03T19:55:11;4.07;;;3.77;;
2712;SDS011;1366;47.988;7.856;2022-08-03T19:57:37;4.07;;;3.87;;
2712;SDS011;1366;47.988;7.856;2022-08-03T20:00:06;4.57;;;3.70;;
2712;SDS011;1366;47.988;7.856;2022-08-03T20:02:34;4.00;;;3.70;;